createdAt,value
2023-02-27T00:00:53.140Z,4.60
2023-02-27T00:05:46.670Z,4.87
2023-02-27T00:10:40.528Z,4.93
2023-02-27T00:13:07.549Z,4.62
2023-02-27T00:15:34.706Z,4.47
2023-02-27T00:18:01.702Z,4.35
2023-02-27T00:20:28.858Z,4.53
2023-02-27T00:22:55.705Z,4.35
2023-02-27T00:27:49.304Z,4.10
2023-02-27T00:30:16.659Z,4.30
2023-02-27T00:32:44.087Z,4.85
2023-02-27T00:35:12.538Z,4.93
2023-02-27T00:37:40.101Z,5.57
2023-02-27T00:40:07.950Z,5.22
2023-02-27T00:42:35.029Z,5.72
2023-02-27T00:45:02.133Z,5.25
2023-02-27T00:47:29.138Z,4.45
2023-02-27T00:49:56.033Z,5.93
2023-02-27T00:54:49.624Z,5.22
2023-02-27T00:59:43.323Z,5.12
2023-02-27T01:02:10.298Z,4.78
2023-02-27T01:04:37.298Z,5.12
2023-02-27T01:07:04.192Z,5.03
2023-02-27T01:11:57.822Z,4.97
2023-02-27T01:14:24.700Z,4.85
2023-02-27T01:19:18.722Z,5.30
2023-02-27T01:21:46.035Z,4.40
2023-02-27T01:24:13.354Z,4.43
2023-02-27T01:26:40.321Z,4.97
2023-02-27T01:29:07.273Z,4.37
2023-02-27T01:31:34.674Z,5.55
2023-02-27T01:34:01.653Z,5.95
2023-02-27T01:36:28.605Z,5.03
2023-02-27T01:38:55.612Z,4.85
2023-02-27T01:41:22.511Z,5.95
2023-02-27T01:46:24.278Z,5.20
2023-02-27T01:48:54.591Z,5.12
2023-02-27T01:51:22.267Z,5.55
2023-02-27T01:53:51.342Z,5.68
2023-02-27T01:56:26.548Z,5.37
2023-02-27T01:58:57.047Z,5.53
2023-02-27T02:01:24.749Z,5.70
2023-02-27T02:04:28.672Z,5.45
2023-02-27T02:07:16.195Z,4.85
2023-02-27T02:09:49.667Z,5.15
2023-02-27T02:12:17.534Z,5.15
2023-02-27T02:14:44.793Z,5.70
2023-02-27T02:17:48.721Z,5.00
2023-02-27T02:20:33.836Z,5.47
2023-02-27T02:23:57.748Z,5.60
2023-02-27T02:26:36.495Z,5.47
2023-02-27T02:29:30.997Z,4.43
2023-02-27T02:32:03.920Z,5.50
2023-02-27T02:34:43.017Z,4.90
2023-02-27T02:37:40.879Z,4.50
2023-02-27T02:40:17.598Z,5.03
2023-02-27T02:43:07.237Z,5.03
2023-02-27T02:45:44.791Z,5.37
2023-02-27T02:48:23.551Z,5.18
2023-02-27T02:51:20.419Z,5.25
2023-02-27T02:54:02.734Z,4.93
2023-02-27T02:56:52.437Z,5.18
2023-02-27T02:59:26.555Z,5.62
2023-02-27T03:02:15.046Z,5.47
2023-02-27T03:04:59.896Z,5.12
2023-02-27T03:07:49.562Z,5.22
2023-02-27T03:10:21.274Z,5.28
2023-02-27T03:12:59.576Z,5.37
2023-02-27T03:15:31.315Z,4.80
2023-02-27T03:18:06.744Z,5.65
2023-02-27T03:20:40.277Z,5.55
2023-02-27T03:23:16.413Z,5.18
2023-02-27T03:25:46.473Z,5.45
2023-02-27T03:28:18.781Z,5.03
2023-02-27T03:30:50.311Z,4.90
2023-02-27T03:33:32.557Z,4.70
2023-02-27T03:36:02.228Z,4.72
2023-02-27T03:38:45.363Z,4.57
2023-02-27T03:41:33.367Z,4.70
2023-02-27T03:46:32.922Z,5.03
2023-02-27T03:48:59.876Z,4.20
2023-02-27T03:51:31.735Z,4.75
2023-02-27T03:54:13.823Z,5.18
2023-02-27T03:56:44.909Z,4.65
2023-02-27T03:59:11.857Z,5.53
2023-02-27T04:01:39.084Z,5.07
2023-02-27T04:04:13.475Z,4.87
2023-02-27T04:07:02.844Z,4.85
2023-02-27T04:09:40.577Z,4.60
2023-02-27T04:12:07.390Z,4.40
2023-02-27T04:17:30.144Z,4.18
2023-02-27T04:20:17.262Z,4.68
2023-02-27T04:22:55.534Z,5.30
2023-02-27T04:25:30.346Z,4.60
2023-02-27T04:28:09.175Z,4.45
2023-02-27T04:30:44.893Z,4.28
2023-02-27T04:33:38.141Z,4.47
2023-02-27T04:36:24.616Z,3.95
2023-02-27T04:39:10.432Z,4.43
2023-02-27T04:42:03.809Z,4.37
2023-02-27T04:44:31.629Z,4.00
2023-02-27T04:47:00.110Z,4.97
2023-02-27T04:49:29.664Z,3.75
2023-02-27T04:52:21.893Z,4.35
2023-02-27T04:54:54.913Z,4.28
2023-02-27T04:57:30.345Z,4.18
2023-02-27T04:59:59.242Z,4.78
2023-02-27T05:02:29.753Z,4.55
2023-02-27T05:04:59.217Z,4.03
2023-02-27T05:07:31.357Z,4.37
2023-02-27T05:10:07.288Z,4.05
2023-02-27T05:13:08.184Z,4.35
2023-02-27T05:15:45.997Z,3.85
2023-02-27T05:18:16.643Z,3.70
2023-02-27T05:20:54.494Z,3.53
2023-02-27T05:23:43.618Z,4.37
2023-02-27T05:26:19.721Z,4.50
2023-02-27T05:29:03.461Z,3.87
2023-02-27T05:31:44.977Z,4.03
2023-02-27T05:34:22.760Z,4.15
2023-02-27T05:36:58.925Z,4.30
2023-02-27T05:39:30.219Z,3.85
2023-02-27T05:42:01.520Z,4.10
2023-02-27T05:44:34.453Z,3.70
2023-02-27T05:47:06.266Z,3.70
2023-02-27T05:49:39.742Z,4.10
2023-02-27T05:52:11.056Z,3.78
2023-02-27T05:55:02.448Z,4.10
2023-02-27T05:57:52.115Z,4.05
2023-02-27T06:00:27.185Z,3.55
2023-02-27T06:02:54.425Z,3.87
2023-02-27T06:05:21.314Z,3.60
2023-02-27T06:10:19.564Z,3.95
2023-02-27T06:12:46.533Z,3.60
2023-02-27T06:15:13.849Z,3.50
2023-02-27T06:17:41.003Z,4.00
2023-02-27T06:20:08.576Z,3.92
2023-02-27T06:22:35.761Z,4.43
2023-02-27T06:25:03.744Z,4.30
2023-02-27T06:27:30.657Z,3.65
2023-02-27T06:32:25.917Z,3.97
2023-02-27T06:34:53.554Z,4.15
2023-02-27T06:37:21.888Z,4.28
2023-02-27T06:39:48.785Z,4.47
2023-02-27T06:44:42.520Z,4.30
2023-02-27T06:49:36.423Z,4.43
2023-02-27T06:52:03.254Z,4.62
2023-02-27T06:56:56.845Z,4.20
2023-02-27T07:01:50.386Z,5.15
2023-02-27T07:07:34.078Z,5.35
2023-02-27T07:09:31.681Z,5.45
2023-02-27T07:11:58.563Z,4.82
2023-02-27T07:16:55.577Z,5.15
2023-02-27T07:19:23.673Z,5.30
2023-02-27T07:21:50.916Z,4.87
2023-02-27T07:24:17.973Z,5.65
2023-02-27T07:26:45.206Z,5.62
2023-02-27T07:29:12.222Z,6.28
2023-02-27T07:31:39.158Z,5.40
2023-02-27T07:34:06.068Z,5.20
2023-02-27T07:38:59.842Z,6.22
2023-02-27T07:43:58.197Z,5.22
2023-02-27T07:46:27.699Z,5.95
2023-02-27T07:48:55.240Z,6.35
2023-02-27T07:51:22.570Z,6.15
2023-02-27T07:53:49.434Z,6.25
2023-02-27T07:58:43.021Z,4.85
2023-02-27T08:03:36.548Z,6.32
2023-02-27T08:08:30.139Z,6.53
2023-02-27T08:13:42.209Z,5.00
2023-02-27T08:16:10.663Z,6.05
2023-02-27T08:18:37.714Z,6.47
2023-02-27T08:21:07.528Z,6.50
2023-02-27T08:23:34.675Z,6.37
2023-02-27T08:26:02.650Z,5.82
2023-02-27T08:28:29.784Z,6.95
2023-02-27T08:30:56.977Z,6.35
2023-02-27T08:33:24.526Z,6.47
2023-02-27T08:35:51.426Z,6.40
2023-02-27T08:40:44.986Z,6.55
2023-02-27T08:45:38.606Z,5.78
2023-02-27T08:48:05.914Z,7.10
2023-02-27T08:50:32.832Z,6.30
2023-02-27T08:55:27.514Z,6.53
2023-02-27T08:57:54.415Z,6.37
2023-02-27T09:02:48.504Z,7.30
2023-02-27T09:05:15.483Z,6.50
2023-02-27T09:07:42.512Z,6.57
2023-02-27T09:10:10.003Z,6.32
2023-02-27T09:12:37.708Z,7.20
2023-02-27T09:15:12.689Z,6.50
2023-02-27T09:18:10.302Z,5.65
2023-02-27T09:20:41.692Z,6.03
2023-02-27T09:23:08.569Z,6.12
2023-02-27T09:25:35.475Z,6.65
2023-02-27T09:28:02.404Z,6.22
2023-02-27T09:30:29.940Z,6.53
2023-02-27T09:32:57.115Z,6.75
2023-02-27T09:35:24.062Z,6.55
2023-02-27T09:37:51.000Z,6.80
2023-02-27T09:40:23.720Z,5.95
2023-02-27T09:42:52.402Z,5.82
2023-02-27T09:45:24.418Z,5.50
2023-02-27T09:48:06.724Z,6.25
2023-02-27T09:50:40.710Z,6.90
2023-02-27T09:53:14.409Z,6.20
2023-02-27T09:55:42.667Z,6.07
2023-02-27T09:58:32.346Z,5.80
2023-02-27T10:01:20.507Z,5.75
2023-02-27T10:04:18.643Z,5.80
2023-02-27T10:06:52.791Z,5.85
2023-02-27T10:09:31.572Z,5.57
2023-02-27T10:12:17.005Z,5.95
2023-02-27T10:14:47.849Z,5.15
2023-02-27T10:17:34.849Z,5.50
2023-02-27T10:20:07.339Z,6.10
2023-02-27T10:22:38.660Z,5.93
2023-02-27T10:25:29.914Z,6.28
2023-02-27T10:28:04.018Z,5.65
2023-02-27T10:30:34.287Z,5.82
2023-02-27T10:33:18.086Z,5.87
2023-02-27T10:35:45.807Z,5.07
2023-02-27T10:38:13.574Z,4.40
2023-02-27T10:40:41.698Z,5.10
2023-02-27T10:43:08.971Z,6.12
2023-02-27T10:45:37.469Z,5.35
2023-02-27T10:48:05.988Z,6.18
2023-02-27T10:50:40.551Z,6.40
2023-02-27T10:53:17.883Z,5.82
2023-02-27T10:58:23.014Z,4.93
2023-02-27T11:03:24.627Z,5.22
2023-02-27T11:06:00.061Z,5.25
2023-02-27T11:08:30.122Z,5.82
2023-02-27T11:10:59.004Z,6.10
2023-02-27T11:13:30.115Z,6.35
2023-02-27T11:16:16.009Z,6.03
2023-02-27T11:18:48.682Z,6.00
2023-02-27T11:21:22.926Z,5.62
2023-02-27T11:23:56.903Z,5.65
2023-02-27T11:26:33.185Z,5.53
2023-02-27T11:29:15.029Z,5.90
2023-02-27T11:31:47.012Z,5.65
2023-02-27T11:34:32.165Z,6.28
2023-02-27T11:37:06.745Z,6.25
2023-02-27T11:39:56.048Z,4.40
2023-02-27T11:42:34.646Z,6.07
2023-02-27T11:46:04.920Z,5.10
2023-02-27T11:48:47.316Z,5.30
2023-02-27T11:54:38.209Z,5.40
2023-02-27T11:57:11.228Z,5.22
2023-02-27T11:59:51.728Z,5.32
2023-02-27T12:02:25.759Z,5.28
2023-02-27T12:05:07.124Z,5.70
2023-02-27T12:07:41.164Z,5.53
2023-02-27T12:10:11.300Z,5.87
2023-02-27T12:12:40.736Z,6.25
2023-02-27T12:15:32.991Z,5.68
2023-02-27T12:23:47.019Z,5.40
2023-02-27T12:26:25.247Z,5.40
2023-02-27T12:29:01.756Z,5.22
2023-02-27T12:31:29.309Z,5.40
2023-02-27T12:34:29.612Z,4.90
2023-02-27T12:39:35.125Z,5.45
2023-02-27T12:42:25.134Z,5.40
2023-02-27T12:45:00.815Z,4.10
2023-02-27T12:47:39.997Z,4.93
2023-02-27T12:50:11.196Z,5.30
2023-02-27T12:52:44.917Z,4.90
2023-02-27T12:55:21.200Z,5.05
2023-02-27T12:58:28.388Z,5.53
2023-02-27T13:01:00.099Z,5.60
2023-02-27T13:03:40.151Z,4.70
2023-02-27T13:06:26.550Z,5.30
2023-02-27T13:09:13.961Z,5.10
2023-02-27T13:11:59.075Z,5.30
2023-02-27T13:14:50.538Z,5.93
2023-02-27T13:17:37.093Z,5.43
2023-02-27T13:20:22.487Z,6.10
2023-02-27T13:23:11.413Z,5.00
2023-02-27T13:25:40.060Z,4.97
2023-02-27T13:28:09.305Z,4.53
2023-02-27T13:30:39.709Z,6.03
2023-02-27T13:33:34.770Z,5.07
2023-02-27T13:36:30.066Z,5.50
2023-02-27T13:38:57.110Z,4.60
2023-02-27T13:41:23.886Z,5.62
2023-02-27T13:46:34.456Z,5.28
2023-02-27T13:49:20.042Z,5.22
2023-02-27T13:51:56.843Z,5.40
2023-02-27T13:54:30.275Z,5.25
2023-02-27T13:56:59.792Z,5.65
2023-02-27T13:59:29.282Z,5.20
2023-02-27T14:02:12.895Z,5.55
2023-02-27T14:05:21.088Z,5.70
2023-02-27T14:10:58.628Z,4.90
2023-02-27T14:18:58.335Z,5.30
2023-02-27T14:21:50.165Z,5.35
2023-02-27T14:24:19.215Z,5.45
2023-02-27T14:26:46.989Z,5.47
2023-02-27T14:29:44.335Z,4.95
2023-02-27T14:32:33.276Z,5.97
2023-02-27T14:35:01.232Z,5.47
2023-02-27T14:40:30.007Z,5.20
2023-02-27T14:43:28.315Z,4.05
2023-02-27T14:45:55.877Z,5.72
2023-02-27T14:48:28.307Z,5.50
2023-02-27T14:50:58.135Z,5.55
2023-02-27T14:53:27.182Z,5.50
2023-02-27T14:58:29.397Z,6.00
2023-02-27T15:03:48.740Z,5.62
2023-02-27T15:06:22.273Z,5.93
2023-02-27T15:08:51.473Z,5.65
2023-02-27T15:11:21.673Z,5.47
2023-02-27T15:13:53.677Z,5.80
2023-02-27T15:16:23.528Z,5.70
2023-02-27T15:18:58.340Z,5.80
2023-02-27T15:21:27.042Z,5.80
2023-02-27T15:23:56.103Z,6.15
2023-02-27T15:26:23.310Z,5.78
2023-02-27T15:28:50.669Z,5.75
2023-02-27T15:31:28.790Z,5.75
2023-02-27T15:33:56.569Z,5.00
2023-02-27T15:36:26.754Z,6.30
2023-02-27T15:39:16.958Z,5.43
2023-02-27T15:41:55.831Z,5.90
2023-02-27T15:44:41.640Z,5.72
2023-02-27T15:47:11.333Z,6.00
2023-02-27T15:49:38.669Z,6.22
2023-02-27T15:52:14.061Z,5.35
2023-02-27T15:54:48.684Z,5.50
2023-02-27T15:57:17.770Z,5.95
2023-02-27T15:59:44.669Z,5.85
2023-02-27T16:02:22.024Z,6.10
2023-02-27T16:07:20.455Z,4.85
2023-02-27T16:09:51.265Z,5.87
2023-02-27T16:12:27.874Z,6.30
2023-02-27T16:15:18.188Z,6.57
2023-02-27T16:17:58.674Z,5.53
2023-02-27T16:20:39.435Z,6.03
2023-02-27T16:23:20.974Z,6.28
2023-02-27T16:26:00.921Z,5.62
2023-02-27T16:28:33.911Z,5.70
2023-02-27T16:31:01.024Z,5.75
2023-02-27T16:33:31.901Z,5.65
2023-02-27T16:36:16.997Z,6.20
2023-02-27T16:38:44.508Z,6.40
2023-02-27T16:41:12.789Z,5.75
2023-02-27T16:43:39.753Z,6.03
2023-02-27T16:48:35.665Z,5.37
2023-02-27T16:51:03.942Z,5.20
2023-02-27T16:53:30.768Z,4.93
2023-02-27T16:58:26.005Z,6.15
2023-02-27T17:00:52.904Z,6.30
2023-02-27T17:03:19.952Z,5.45
2023-02-27T17:05:47.707Z,5.20
2023-02-27T17:08:14.578Z,5.82
2023-02-27T17:10:41.507Z,5.30
2023-02-27T17:13:08.360Z,5.87
2023-02-27T17:18:01.918Z,5.05
2023-02-27T17:20:30.321Z,5.57
2023-02-27T17:22:57.853Z,6.43
2023-02-27T17:25:25.640Z,5.57
2023-02-27T17:27:52.530Z,5.45
2023-02-27T17:30:19.495Z,5.20
2023-02-27T17:32:46.368Z,6.07
2023-02-27T17:35:13.216Z,5.40
2023-02-27T17:40:08.422Z,5.57
2023-02-27T17:42:39.400Z,5.28
2023-02-27T17:45:07.626Z,6.00
2023-02-27T17:47:35.135Z,5.50
2023-02-27T17:50:02.782Z,5.35
2023-02-27T17:52:29.883Z,6.07
2023-02-27T17:54:57.006Z,6.07
2023-02-27T17:57:23.856Z,5.78
2023-02-27T17:59:51.030Z,5.18
2023-02-27T18:02:17.957Z,5.93
2023-02-27T18:04:44.884Z,6.32
2023-02-27T18:07:11.749Z,6.50
2023-02-27T18:12:05.585Z,6.07
2023-02-27T18:14:32.599Z,6.30
2023-02-27T18:16:59.886Z,5.87
2023-02-27T18:19:32.334Z,5.35
2023-02-27T18:21:59.534Z,5.72
2023-02-27T18:24:26.392Z,6.25
2023-02-27T18:29:19.916Z,6.30
2023-02-27T18:31:50.355Z,6.45
2023-02-27T18:34:17.269Z,6.05
2023-02-27T18:36:44.156Z,6.47
2023-02-27T18:39:11.536Z,6.20
2023-02-27T18:41:38.661Z,6.05
2023-02-27T18:44:06.506Z,5.80
2023-02-27T18:46:33.954Z,6.15
2023-02-27T18:49:01.411Z,6.18
2023-02-27T18:51:28.395Z,5.85
2023-02-27T18:53:55.479Z,6.62
2023-02-27T18:56:24.916Z,6.25
2023-02-27T18:58:52.574Z,5.93
2023-02-27T19:01:22.533Z,6.62
2023-02-27T19:03:50.531Z,6.70
2023-02-27T19:06:17.691Z,6.80
2023-02-27T19:08:44.756Z,6.30
2023-02-27T19:11:11.704Z,6.50
2023-02-27T19:13:38.551Z,6.28
2023-02-27T19:18:32.348Z,6.18
2023-02-27T19:21:05.405Z,6.82
2023-02-27T19:23:32.423Z,6.40
2023-02-27T19:26:00.524Z,6.32
2023-02-27T19:28:27.921Z,6.85
2023-02-27T19:30:55.010Z,6.97
2023-02-27T19:33:21.911Z,6.28
2023-02-27T19:35:48.858Z,7.80
2023-02-27T19:38:15.912Z,6.40
2023-02-27T19:40:42.787Z,7.00
2023-02-27T19:43:09.670Z,6.95
2023-02-27T19:45:40.848Z,7.15
2023-02-27T19:48:08.455Z,6.85
2023-02-27T19:50:35.378Z,6.55
2023-02-27T19:53:02.428Z,6.55
2023-02-27T19:55:29.327Z,6.75
2023-02-27T19:57:56.217Z,5.95
2023-02-27T20:00:23.535Z,5.87
2023-02-27T20:02:50.433Z,5.85
2023-02-27T20:05:17.452Z,6.72
2023-02-27T20:07:46.492Z,7.07
2023-02-27T20:10:13.424Z,7.00
2023-02-27T20:12:40.530Z,6.37
2023-02-27T20:15:11.590Z,6.45
2023-02-27T20:17:39.835Z,5.95
2023-02-27T20:20:07.316Z,7.07
2023-02-27T20:22:34.197Z,7.53
2023-02-27T20:25:01.259Z,8.60
2023-02-27T20:27:28.521Z,6.68
2023-02-27T20:29:56.398Z,7.37
2023-02-27T20:32:24.723Z,7.28
2023-02-27T20:34:53.680Z,7.37
2023-02-27T20:37:22.574Z,8.23
2023-02-27T20:39:49.956Z,6.85
2023-02-27T20:42:17.119Z,6.90
2023-02-27T20:44:44.050Z,7.28
2023-02-27T20:47:11.186Z,7.40
2023-02-27T20:49:38.721Z,7.70
2023-02-27T20:52:05.743Z,8.38
2023-02-27T20:54:32.893Z,7.72
2023-02-27T20:56:59.783Z,7.20
2023-02-27T20:59:26.887Z,7.93
2023-02-27T21:01:54.794Z,7.95
2023-02-27T21:04:42.649Z,7.57
2023-02-27T21:09:45.997Z,7.25
2023-02-27T21:12:13.101Z,8.00
2023-02-27T21:14:40.017Z,7.45
2023-02-27T21:17:07.232Z,8.20
2023-02-27T21:19:34.097Z,8.38
2023-02-27T21:22:01.076Z,7.40
2023-02-27T21:24:28.032Z,8.07
2023-02-27T21:26:54.902Z,8.15
2023-02-27T21:29:21.866Z,8.10
2023-02-27T21:31:49.754Z,7.57
2023-02-27T21:34:20.324Z,7.70
2023-02-27T21:36:47.546Z,7.95
2023-02-27T21:39:17.073Z,8.18
2023-02-27T21:41:44.491Z,7.70
2023-02-27T21:44:14.160Z,7.62
2023-02-27T21:46:41.281Z,7.43
2023-02-27T21:49:08.224Z,7.75
2023-02-27T21:51:40.779Z,7.78
2023-02-27T21:54:11.342Z,7.97
2023-02-27T21:56:39.026Z,8.10
2023-02-27T21:59:06.237Z,7.97
2023-02-27T22:01:33.481Z,8.48
2023-02-27T22:04:02.026Z,7.20
2023-02-27T22:06:32.324Z,7.80
2023-02-27T22:09:01.832Z,8.55
2023-02-27T22:11:29.556Z,7.05
2023-02-27T22:13:56.907Z,7.10
2023-02-27T22:16:24.109Z,6.37
2023-02-27T22:18:51.932Z,8.15
2023-02-27T22:21:22.770Z,10.00
2023-02-27T22:23:50.284Z,7.20
2023-02-27T22:26:24.339Z,8.02
2023-02-27T22:28:52.237Z,7.90
2023-02-27T22:31:21.975Z,9.02
2023-02-27T22:33:51.299Z,7.80
2023-02-27T22:36:23.426Z,8.27
2023-02-27T22:38:50.497Z,8.60
2023-02-27T22:41:19.803Z,7.00
2023-02-27T22:43:46.895Z,8.18
2023-02-27T22:46:20.410Z,10.07
2023-02-27T22:48:47.309Z,9.02
2023-02-27T22:53:45.100Z,6.15
2023-02-27T22:56:14.161Z,8.90
2023-02-27T22:58:42.390Z,6.45
2023-02-27T23:01:18.970Z,7.97
2023-02-27T23:03:48.092Z,8.35
2023-02-27T23:06:18.325Z,8.88
2023-02-27T23:08:45.886Z,9.88
2023-02-27T23:11:14.046Z,9.02
2023-02-27T23:13:41.427Z,8.65
2023-02-27T23:16:11.887Z,8.13
2023-02-27T23:18:40.144Z,6.53
2023-02-27T23:21:07.682Z,9.10
2023-02-27T23:23:34.829Z,8.88
2023-02-27T23:26:02.500Z,7.45
2023-02-27T23:28:30.145Z,10.88
2023-02-27T23:30:57.079Z,7.45
2023-02-27T23:33:23.977Z,10.18
2023-02-27T23:38:19.254Z,8.38
2023-02-27T23:40:46.186Z,8.18
2023-02-27T23:43:13.126Z,8.50
2023-02-27T23:45:40.350Z,7.57
2023-02-27T23:48:07.460Z,6.18
2023-02-27T23:50:39.378Z,7.78
2023-02-27T23:53:07.519Z,8.05
2023-02-27T23:55:36.205Z,7.10
2023-02-27T23:58:05.856Z,7.18
